sensor_id;sensor_type;location;lat;lon;timestamp;P1;durP1;ratioP1;P2;durP2;ratioP2
74670;SDS011;63196;39.564;2.628;2023-05-10T00:00:41;5.10;;;1.90;;
74670;SDS011;63196;39.564;2.628;2023-05-10T00:03:06;3.50;;;1.30;;
74670;SDS011;63196;39.564;2.628;2023-05-10T00:05:32;3.20;;;1.00;;
74670;SDS011;63196;39.564;2.628;2023-05-10T00:07:57;5.10;;;1.30;;
74670;SDS011;63196;39.564;2.628;2023-05-10T00:10:22;3.40;;;1.20;;
74670;SDS011;63196;39.564;2.628;2023-05-10T00:12:48;4.00;;;1.20;;
74670;SDS011;63196;39.564;2.628;2023-05-10T00:15:13;4.90;;;0.90;;
74670;SDS011;63196;39.564;2.628;2023-05-10T00:17:39;2.50;;;0.80;;
74670;SDS011;63196;39.564;2.628;2023-05-10T00:20:04;2.30;;;0.90;;
74670;SDS011;63196;39.564;2.628;2023-05-10T00:22:30;2.70;;;0.90;;
74670;SDS011;63196;39.564;2.628;2023-05-10T00:24:56;4.10;;;1.00;;
74670;SDS011;63196;39.564;2.628;2023-05-10T00:27:22;4.40;;;1.30;;
74670;SDS011;63196;39.564;2.628;2023-05-10T00:29:47;3.10;;;1.00;;
74670;SDS011;63196;39.564;2.628;2023-05-10T00:32:12;4.30;;;1.20;;
74670;SDS011;63196;39.564;2.628;2023-05-10T00:34:39;2.60;;;0.90;;
74670;SDS011;63196;39.564;2.628;2023-05-10T00:37:05;3.50;;;1.10;;
74670;SDS011;63196;39.564;2.628;2023-05-10T00:39:30;7.10;;;1.20;;
74670;SDS011;63196;39.564;2.628;2023-05-10T00:41:56;6.30;;;1.20;;
74670;SDS011;63196;39.564;2.628;2023-05-10T00:44:21;3.80;;;1.00;;
74670;SDS011;63196;39.564;2.628;2023-05-10T00:46:46;5.80;;;1.00;;
74670;SDS011;63196;39.564;2.628;2023-05-10T00:49:13;5.10;;;1.00;;
74670;SDS011;63196;39.564;2.628;2023-05-10T00:51:38;3.40;;;0.90;;
74670;SDS011;63196;39.564;2.628;2023-05-10T00:54:04;3.20;;;0.80;;
74670;SDS011;63196;39.564;2.628;2023-05-10T00:56:30;4.00;;;1.20;;
74670;SDS011;63196;39.564;2.628;2023-05-10T00:58:56;2.20;;;1.30;;
74670;SDS011;63196;39.564;2.628;2023-05-10T01:01:21;3.20;;;0.80;;
74670;SDS011;63196;39.564;2.628;2023-05-10T01:03:47;3.60;;;0.90;;
74670;SDS011;63196;39.564;2.628;2023-05-10T01:06:12;3.70;;;1.00;;
74670;SDS011;63196;39.564;2.628;2023-05-10T01:08:37;3.50;;;1.00;;
74670;SDS011;63196;39.564;2.628;2023-05-10T01:11:03;4.80;;;0.70;;
74670;SDS011;63196;39.564;2.628;2023-05-10T01:15:54;2.80;;;1.00;;
74670;SDS011;63196;39.564;2.628;2023-05-10T01:18:19;2.80;;;0.90;;
74670;SDS011;63196;39.564;2.628;2023-05-10T01:20:46;2.10;;;0.60;;
74670;SDS011;63196;39.564;2.628;2023-05-10T01:39:01;2.30;;;0.80;;
74670;SDS011;63196;39.564;2.628;2023-05-10T01:46:20;2.50;;;0.80;;
74670;SDS011;63196;39.564;2.628;2023-05-10T01:48:51;4.00;;;0.60;;
74670;SDS011;63196;39.564;2.628;2023-05-10T01:51:19;4.30;;;0.50;;
74670;SDS011;63196;39.564;2.628;2023-05-10T01:53:46;2.80;;;0.60;;
74670;SDS011;63196;39.564;2.628;2023-05-10T01:56:13;1.90;;;0.50;;
74670;SDS011;63196;39.564;2.628;2023-05-10T01:58:39;4.10;;;0.90;;
74670;SDS011;63196;39.564;2.628;2023-05-10T02:01:05;5.70;;;0.90;;
74670;SDS011;63196;39.564;2.628;2023-05-10T02:03:32;2.10;;;0.60;;
74670;SDS011;63196;39.564;2.628;2023-05-10T02:05:59;3.70;;;0.90;;
74670;SDS011;63196;39.564;2.628;2023-05-10T02:08:24;3.50;;;0.80;;
74670;SDS011;63196;39.564;2.628;2023-05-10T02:10:52;0.90;;;0.30;;
74670;SDS011;63196;39.564;2.628;2023-05-10T02:13:18;1.30;;;0.40;;
74670;SDS011;63196;39.564;2.628;2023-05-10T02:15:43;2.50;;;0.60;;
74670;SDS011;63196;39.564;2.628;2023-05-10T02:18:12;1.90;;;0.60;;
74670;SDS011;63196;39.564;2.628;2023-05-10T02:20:38;3.90;;;0.70;;
74670;SDS011;63196;39.564;2.628;2023-05-10T02:23:04;1.70;;;0.50;;
74670;SDS011;63196;39.564;2.628;2023-05-10T02:25:30;4.10;;;0.60;;
74670;SDS011;63196;39.564;2.628;2023-05-10T02:27:56;4.60;;;1.00;;
74670;SDS011;63196;39.564;2.628;2023-05-10T02:30:23;2.40;;;0.70;;
74670;SDS011;63196;39.564;2.628;2023-05-10T02:32:49;2.50;;;0.80;;
74670;SDS011;63196;39.564;2.628;2023-05-10T02:35:14;1.70;;;0.40;;
74670;SDS011;63196;39.564;2.628;2023-05-10T02:37:40;1.80;;;0.50;;
74670;SDS011;63196;39.564;2.628;2023-05-10T02:40:06;2.80;;;0.80;;
74670;SDS011;63196;39.564;2.628;2023-05-10T02:42:33;3.70;;;0.60;;
74670;SDS011;63196;39.564;2.628;2023-05-10T02:45:00;2.40;;;0.50;;
74670;SDS011;63196;39.564;2.628;2023-05-10T02:47:29;2.50;;;0.50;;
74670;SDS011;63196;39.564;2.628;2023-05-10T02:52:21;2.10;;;0.70;;
74670;SDS011;63196;39.564;2.628;2023-05-10T02:54:48;1.50;;;0.50;;
74670;SDS011;63196;39.564;2.628;2023-05-10T02:57:18;2.10;;;0.60;;
74670;SDS011;63196;39.564;2.628;2023-05-10T02:59:49;1.70;;;0.50;;
74670;SDS011;63196;39.564;2.628;2023-05-10T03:02:14;1.40;;;0.60;;
74670;SDS011;63196;39.564;2.628;2023-05-10T03:04:40;1.80;;;0.60;;
74670;SDS011;63196;39.564;2.628;2023-05-10T03:07:08;3.00;;;0.50;;
74670;SDS011;63196;39.564;2.628;2023-05-10T03:09:37;2.90;;;0.50;;
74670;SDS011;63196;39.564;2.628;2023-05-10T03:12:11;2.60;;;0.60;;
74670;SDS011;63196;39.564;2.628;2023-05-10T03:15:00;3.10;;;0.60;;
74670;SDS011;63196;39.564;2.628;2023-05-10T03:20:03;1.80;;;0.60;;
74670;SDS011;63196;39.564;2.628;2023-05-10T03:22:40;1.40;;;0.40;;
74670;SDS011;63196;39.564;2.628;2023-05-10T03:25:08;2.00;;;0.60;;
74670;SDS011;63196;39.564;2.628;2023-05-10T03:27:36;2.40;;;0.80;;
74670;SDS011;63196;39.564;2.628;2023-05-10T03:30:02;2.30;;;0.60;;
74670;SDS011;63196;39.564;2.628;2023-05-10T03:32:28;2.10;;;0.40;;
74670;SDS011;63196;39.564;2.628;2023-05-10T03:34:54;2.30;;;0.70;;
74670;SDS011;63196;39.564;2.628;2023-05-10T03:37:19;1.50;;;0.70;;
74670;SDS011;63196;39.564;2.628;2023-05-10T03:39:45;1.90;;;0.70;;
74670;SDS011;63196;39.564;2.628;2023-05-10T03:42:10;1.30;;;0.30;;
74670;SDS011;63196;39.564;2.628;2023-05-10T03:44:37;1.70;;;0.60;;
74670;SDS011;63196;39.564;2.628;2023-05-10T03:47:03;0.90;;;0.40;;
74670;SDS011;63196;39.564;2.628;2023-05-10T03:49:28;1.50;;;0.40;;
74670;SDS011;63196;39.564;2.628;2023-05-10T03:51:54;2.10;;;0.50;;
74670;SDS011;63196;39.564;2.628;2023-05-10T03:54:19;3.10;;;0.50;;
74670;SDS011;63196;39.564;2.628;2023-05-10T03:56:45;3.30;;;0.40;;
74670;SDS011;63196;39.564;2.628;2023-05-10T03:59:13;1.50;;;0.40;;
74670;SDS011;63196;39.564;2.628;2023-05-10T04:01:38;3.20;;;0.70;;
74670;SDS011;63196;39.564;2.628;2023-05-10T04:04:03;1.10;;;0.30;;
74670;SDS011;63196;39.564;2.628;2023-05-10T04:06:29;3.00;;;0.50;;
74670;SDS011;63196;39.564;2.628;2023-05-10T04:08:54;4.00;;;0.50;;
74670;SDS011;63196;39.564;2.628;2023-05-10T04:11:20;2.10;;;0.50;;
74670;SDS011;63196;39.564;2.628;2023-05-10T04:13:47;2.10;;;0.40;;
74670;SDS011;63196;39.564;2.628;2023-05-10T04:16:12;6.90;;;0.90;;
74670;SDS011;63196;39.564;2.628;2023-05-10T04:18:37;1.30;;;0.50;;
74670;SDS011;63196;39.564;2.628;2023-05-10T04:21:04;2.20;;;0.60;;
74670;SDS011;63196;39.564;2.628;2023-05-10T04:23:30;1.60;;;0.50;;
74670;SDS011;63196;39.564;2.628;2023-05-10T04:25:59;2.40;;;0.50;;
74670;SDS011;63196;39.564;2.628;2023-05-10T04:28:24;2.70;;;0.70;;
74670;SDS011;63196;39.564;2.628;2023-05-10T04:30:49;1.90;;;0.60;;
74670;SDS011;63196;39.564;2.628;2023-05-10T04:33:15;2.50;;;0.50;;
74670;SDS011;63196;39.564;2.628;2023-05-10T04:35:40;1.30;;;0.40;;
74670;SDS011;63196;39.564;2.628;2023-05-10T04:38:06;0.90;;;0.50;;
74670;SDS011;63196;39.564;2.628;2023-05-10T04:40:31;2.70;;;0.70;;
74670;SDS011;63196;39.564;2.628;2023-05-10T04:42:56;2.10;;;0.70;;
74670;SDS011;63196;39.564;2.628;2023-05-10T04:45:22;1.60;;;0.50;;
74670;SDS011;63196;39.564;2.628;2023-05-10T04:47:47;3.00;;;0.60;;
74670;SDS011;63196;39.564;2.628;2023-05-10T04:50:12;2.10;;;0.60;;
74670;SDS011;63196;39.564;2.628;2023-05-10T04:52:38;2.00;;;0.60;;
74670;SDS011;63196;39.564;2.628;2023-05-10T04:55:03;2.70;;;1.00;;
74670;SDS011;63196;39.564;2.628;2023-05-10T04:57:28;1.80;;;0.50;;
74670;SDS011;63196;39.564;2.628;2023-05-10T04:59:54;2.20;;;1.00;;
74670;SDS011;63196;39.564;2.628;2023-05-10T05:02:19;3.30;;;0.60;;
74670;SDS011;63196;39.564;2.628;2023-05-10T05:04:45;0.80;;;0.30;;
74670;SDS011;63196;39.564;2.628;2023-05-10T05:07:10;0.60;;;0.20;;
74670;SDS011;63196;39.564;2.628;2023-05-10T05:09:35;3.60;;;0.70;;
74670;SDS011;63196;39.564;2.628;2023-05-10T05:12:01;1.20;;;0.50;;
74670;SDS011;63196;39.564;2.628;2023-05-10T05:14:29;1.90;;;0.60;;
74670;SDS011;63196;39.564;2.628;2023-05-10T05:16:55;1.10;;;0.30;;
74670;SDS011;63196;39.564;2.628;2023-05-10T05:19:21;1.40;;;0.50;;
74670;SDS011;63196;39.564;2.628;2023-05-10T05:21:46;4.40;;;0.60;;
74670;SDS011;63196;39.564;2.628;2023-05-10T05:24:11;1.70;;;0.60;;
74670;SDS011;63196;39.564;2.628;2023-05-10T05:26:37;3.60;;;0.60;;
74670;SDS011;63196;39.564;2.628;2023-05-10T05:29:03;2.30;;;0.70;;
74670;SDS011;63196;39.564;2.628;2023-05-10T05:31:29;1.30;;;0.50;;
74670;SDS011;63196;39.564;2.628;2023-05-10T05:33:54;1.80;;;0.60;;
74670;SDS011;63196;39.564;2.628;2023-05-10T05:36:23;1.60;;;0.50;;
74670;SDS011;63196;39.564;2.628;2023-05-10T05:38:48;3.50;;;0.50;;
74670;SDS011;63196;39.564;2.628;2023-05-10T05:41:14;2.40;;;0.50;;
74670;SDS011;63196;39.564;2.628;2023-05-10T05:43:39;2.30;;;0.60;;
74670;SDS011;63196;39.564;2.628;2023-05-10T05:46:05;2.30;;;0.70;;
74670;SDS011;63196;39.564;2.628;2023-05-10T05:48:30;1.50;;;0.50;;
74670;SDS011;63196;39.564;2.628;2023-05-10T05:50:56;2.40;;;0.70;;
74670;SDS011;63196;39.564;2.628;2023-05-10T05:53:24;1.90;;;0.40;;
74670;SDS011;63196;39.564;2.628;2023-05-10T05:55:53;3.00;;;0.70;;
74670;SDS011;63196;39.564;2.628;2023-05-10T05:58:22;2.80;;;0.60;;
74670;SDS011;63196;39.564;2.628;2023-05-10T06:00:48;2.00;;;0.50;;
74670;SDS011;63196;39.564;2.628;2023-05-10T06:03:13;3.10;;;0.80;;
74670;SDS011;63196;39.564;2.628;2023-05-10T06:05:38;1.60;;;0.60;;
74670;SDS011;63196;39.564;2.628;2023-05-10T06:08:04;4.60;;;0.70;;
74670;SDS011;63196;39.564;2.628;2023-05-10T06:10:29;2.10;;;0.50;;
74670;SDS011;63196;39.564;2.628;2023-05-10T06:12:55;3.90;;;0.70;;
74670;SDS011;63196;39.564;2.628;2023-05-10T06:15:21;1.40;;;0.40;;
74670;SDS011;63196;39.564;2.628;2023-05-10T06:17:46;5.60;;;0.60;;
74670;SDS011;63196;39.564;2.628;2023-05-10T06:20:14;2.70;;;0.60;;
74670;SDS011;63196;39.564;2.628;2023-05-10T06:22:40;2.00;;;0.40;;
74670;SDS011;63196;39.564;2.628;2023-05-10T06:25:05;1.80;;;0.30;;
74670;SDS011;63196;39.564;2.628;2023-05-10T06:27:31;2.00;;;0.60;;
74670;SDS011;63196;39.564;2.628;2023-05-10T06:29:57;1.60;;;0.30;;
74670;SDS011;63196;39.564;2.628;2023-05-10T06:32:22;1.20;;;0.30;;
74670;SDS011;63196;39.564;2.628;2023-05-10T06:34:47;1.30;;;0.40;;
74670;SDS011;63196;39.564;2.628;2023-05-10T06:37:12;1.90;;;0.30;;
74670;SDS011;63196;39.564;2.628;2023-05-10T06:39:38;1.20;;;0.20;;
74670;SDS011;63196;39.564;2.628;2023-05-10T06:42:03;1.70;;;0.60;;
74670;SDS011;63196;39.564;2.628;2023-05-10T06:44:29;1.10;;;0.20;;
74670;SDS011;63196;39.564;2.628;2023-05-10T06:46:55;1.40;;;0.40;;
74670;SDS011;63196;39.564;2.628;2023-05-10T06:49:21;1.80;;;0.30;;
74670;SDS011;63196;39.564;2.628;2023-05-10T06:51:46;1.90;;;0.20;;
74670;SDS011;63196;39.564;2.628;2023-05-10T06:54:11;2.20;;;0.30;;
74670;SDS011;63196;39.564;2.628;2023-05-10T06:56:37;0.90;;;0.30;;
74670;SDS011;63196;39.564;2.628;2023-05-10T06:59:02;2.20;;;0.50;;
74670;SDS011;63196;39.564;2.628;2023-05-10T07:01:28;2.30;;;0.40;;
74670;SDS011;63196;39.564;2.628;2023-05-10T07:03:53;1.50;;;0.50;;
74670;SDS011;63196;39.564;2.628;2023-05-10T07:06:18;1.80;;;0.40;;
74670;SDS011;63196;39.564;2.628;2023-05-10T07:08:44;4.80;;;0.40;;
74670;SDS011;63196;39.564;2.628;2023-05-10T07:11:09;2.30;;;0.20;;
74670;SDS011;63196;39.564;2.628;2023-05-10T07:13:37;0.90;;;0.20;;
74670;SDS011;63196;39.564;2.628;2023-05-10T07:16:04;1.50;;;0.40;;
74670;SDS011;63196;39.564;2.628;2023-05-10T07:18:31;2.20;;;0.30;;
74670;SDS011;63196;39.564;2.628;2023-05-10T07:20:57;1.00;;;0.40;;
74670;SDS011;63196;39.564;2.628;2023-05-10T07:23:22;2.40;;;0.50;;
74670;SDS011;63196;39.564;2.628;2023-05-10T07:25:48;3.40;;;0.50;;
74670;SDS011;63196;39.564;2.628;2023-05-10T07:28:14;2.40;;;0.40;;
74670;SDS011;63196;39.564;2.628;2023-05-10T07:30:40;0.50;;;0.20;;
74670;SDS011;63196;39.564;2.628;2023-05-10T07:33:05;2.20;;;0.40;;
74670;SDS011;63196;39.564;2.628;2023-05-10T07:35:30;1.40;;;0.30;;
74670;SDS011;63196;39.564;2.628;2023-05-10T07:37:56;1.70;;;0.40;;
74670;SDS011;63196;39.564;2.628;2023-05-10T07:40:21;1.10;;;0.30;;
74670;SDS011;63196;39.564;2.628;2023-05-10T07:42:46;1.10;;;0.30;;
74670;SDS011;63196;39.564;2.628;2023-05-10T07:45:12;2.90;;;0.50;;
74670;SDS011;63196;39.564;2.628;2023-05-10T07:47:37;1.20;;;0.30;;
74670;SDS011;63196;39.564;2.628;2023-05-10T07:50:03;2.10;;;0.70;;
74670;SDS011;63196;39.564;2.628;2023-05-10T07:52:28;2.20;;;0.50;;
74670;SDS011;63196;39.564;2.628;2023-05-10T07:54:54;1.70;;;0.40;;
74670;SDS011;63196;39.564;2.628;2023-05-10T07:57:22;5.70;;;0.80;;
74670;SDS011;63196;39.564;2.628;2023-05-10T07:59:47;2.10;;;0.70;;
74670;SDS011;63196;39.564;2.628;2023-05-10T08:02:12;2.20;;;0.30;;
74670;SDS011;63196;39.564;2.628;2023-05-10T08:04:38;1.60;;;0.40;;
74670;SDS011;63196;39.564;2.628;2023-05-10T08:07:03;2.20;;;0.40;;
74670;SDS011;63196;39.564;2.628;2023-05-10T08:09:28;1.50;;;0.50;;
74670;SDS011;63196;39.564;2.628;2023-05-10T08:11:54;1.50;;;0.30;;
74670;SDS011;63196;39.564;2.628;2023-05-10T08:14:20;2.30;;;0.70;;
74670;SDS011;63196;39.564;2.628;2023-05-10T08:16:45;1.90;;;0.60;;
74670;SDS011;63196;39.564;2.628;2023-05-10T08:19:10;3.30;;;0.90;;
74670;SDS011;63196;39.564;2.628;2023-05-10T08:21:36;2.20;;;0.30;;
74670;SDS011;63196;39.564;2.628;2023-05-10T08:24:01;2.00;;;0.50;;
74670;SDS011;63196;39.564;2.628;2023-05-10T08:26:27;1.10;;;0.40;;
74670;SDS011;63196;39.564;2.628;2023-05-10T08:28:52;2.00;;;0.60;;
74670;SDS011;63196;39.564;2.628;2023-05-10T08:31:18;1.50;;;0.60;;
74670;SDS011;63196;39.564;2.628;2023-05-10T08:33:43;2.60;;;0.80;;
74670;SDS011;63196;39.564;2.628;2023-05-10T08:36:09;1.00;;;0.30;;
74670;SDS011;63196;39.564;2.628;2023-05-10T08:38:34;2.70;;;0.60;;
74670;SDS011;63196;39.564;2.628;2023-05-10T08:41:00;2.50;;;0.40;;
74670;SDS011;63196;39.564;2.628;2023-05-10T08:43:27;2.40;;;0.50;;
74670;SDS011;63196;39.564;2.628;2023-05-10T08:45:55;2.70;;;0.60;;
74670;SDS011;63196;39.564;2.628;2023-05-10T08:48:22;2.30;;;0.40;;
74670;SDS011;63196;39.564;2.628;2023-05-10T08:50:48;2.30;;;0.50;;
74670;SDS011;63196;39.564;2.628;2023-05-10T08:53:14;1.60;;;0.40;;
74670;SDS011;63196;39.564;2.628;2023-05-10T08:55:41;3.30;;;0.60;;
74670;SDS011;63196;39.564;2.628;2023-05-10T08:58:08;3.00;;;0.60;;
74670;SDS011;63196;39.564;2.628;2023-05-10T09:00:33;3.80;;;0.70;;
74670;SDS011;63196;39.564;2.628;2023-05-10T09:03:00;2.40;;;0.60;;
74670;SDS011;63196;39.564;2.628;2023-05-10T09:05:26;3.00;;;0.40;;
74670;SDS011;63196;39.564;2.628;2023-05-10T09:07:51;8.30;;;1.00;;
74670;SDS011;63196;39.564;2.628;2023-05-10T09:10:17;1.70;;;0.80;;
74670;SDS011;63196;39.564;2.628;2023-05-10T09:12:44;3.90;;;0.70;;
74670;SDS011;63196;39.564;2.628;2023-05-10T09:15:10;4.50;;;0.60;;
74670;SDS011;63196;39.564;2.628;2023-05-10T09:17:36;4.60;;;0.90;;
74670;SDS011;63196;39.564;2.628;2023-05-10T09:20:02;3.30;;;0.50;;
74670;SDS011;63196;39.564;2.628;2023-05-10T09:22:32;1.50;;;0.50;;
74670;SDS011;63196;39.564;2.628;2023-05-10T09:25:07;1.90;;;0.50;;
74670;SDS011;63196;39.564;2.628;2023-05-10T09:27:33;3.00;;;0.60;;
74670;SDS011;63196;39.564;2.628;2023-05-10T09:29:59;6.10;;;0.90;;
74670;SDS011;63196;39.564;2.628;2023-05-10T09:32:40;2.40;;;0.80;;
74670;SDS011;63196;39.564;2.628;2023-05-10T09:37:42;1.80;;;0.60;;
74670;SDS011;63196;39.564;2.628;2023-05-10T09:40:08;3.60;;;0.80;;
74670;SDS011;63196;39.564;2.628;2023-05-10T09:42:36;2.40;;;0.60;;
74670;SDS011;63196;39.564;2.628;2023-05-10T09:45:05;2.70;;;0.60;;
74670;SDS011;63196;39.564;2.628;2023-05-10T09:47:33;5.00;;;0.90;;
74670;SDS011;63196;39.564;2.628;2023-05-10T09:49:59;3.70;;;0.70;;
74670;SDS011;63196;39.564;2.628;2023-05-10T09:52:45;3.10;;;0.80;;
74670;SDS011;63196;39.564;2.628;2023-05-10T09:55:11;4.10;;;0.70;;
74670;SDS011;63196;39.564;2.628;2023-05-10T09:57:37;3.60;;;0.80;;
74670;SDS011;63196;39.564;2.628;2023-05-10T10:00:03;5.90;;;0.80;;
74670;SDS011;63196;39.564;2.628;2023-05-10T10:02:30;5.90;;;1.00;;
74670;SDS011;63196;39.564;2.628;2023-05-10T10:04:56;4.50;;;0.80;;
74670;SDS011;63196;39.564;2.628;2023-05-10T10:07:23;7.20;;;1.00;;
74670;SDS011;63196;39.564;2.628;2023-05-10T10:09:49;4.80;;;0.90;;
74670;SDS011;63196;39.564;2.628;2023-05-10T10:12:14;4.30;;;0.90;;
74670;SDS011;63196;39.564;2.628;2023-05-10T10:14:40;6.90;;;1.50;;
74670;SDS011;63196;39.564;2.628;2023-05-10T10:17:05;5.50;;;0.90;;
74670;SDS011;63196;39.564;2.628;2023-05-10T10:19:33;3.60;;;0.80;;
74670;SDS011;63196;39.564;2.628;2023-05-10T10:24:24;4.30;;;1.00;;
74670;SDS011;63196;39.564;2.628;2023-05-10T10:26:49;5.80;;;1.40;;
74670;SDS011;63196;39.564;2.628;2023-05-10T10:34:27;4.40;;;1.20;;
74670;SDS011;63196;39.564;2.628;2023-05-10T10:36:54;4.90;;;0.80;;
74670;SDS011;63196;39.564;2.628;2023-05-10T10:39:19;8.30;;;1.50;;
74670;SDS011;63196;39.564;2.628;2023-05-10T10:41:49;5.80;;;0.90;;
74670;SDS011;63196;39.564;2.628;2023-05-10T10:47:07;3.90;;;0.80;;
74670;SDS011;63196;39.564;2.628;2023-05-10T10:54:40;3.20;;;0.60;;
74670;SDS011;63196;39.564;2.628;2023-05-10T10:57:17;8.50;;;1.20;;
74670;SDS011;63196;39.564;2.628;2023-05-10T10:59:43;4.90;;;0.80;;
74670;SDS011;63196;39.564;2.628;2023-05-10T11:02:44;6.40;;;1.20;;
74670;SDS011;63196;39.564;2.628;2023-05-10T11:05:22;2.80;;;0.60;;
74670;SDS011;63196;39.564;2.628;2023-05-10T11:07:58;4.50;;;0.80;;
74670;SDS011;63196;39.564;2.628;2023-05-10T11:10:24;7.80;;;1.20;;
74670;SDS011;63196;39.564;2.628;2023-05-10T11:13:11;3.80;;;0.80;;
74670;SDS011;63196;39.564;2.628;2023-05-10T11:15:36;4.00;;;0.70;;
74670;SDS011;63196;39.564;2.628;2023-05-10T11:20:43;3.10;;;0.70;;
74670;SDS011;63196;39.564;2.628;2023-05-10T11:23:13;5.90;;;0.90;;
74670;SDS011;63196;39.564;2.628;2023-05-10T11:25:41;6.00;;;0.90;;
74670;SDS011;63196;39.564;2.628;2023-05-10T11:28:07;6.30;;;0.80;;
74670;SDS011;63196;39.564;2.628;2023-05-10T11:30:33;4.20;;;0.90;;
74670;SDS011;63196;39.564;2.628;2023-05-10T11:32:58;9.20;;;1.20;;
74670;SDS011;63196;39.564;2.628;2023-05-10T11:35:23;3.10;;;0.80;;
74670;SDS011;63196;39.564;2.628;2023-05-10T11:37:49;3.60;;;0.70;;
74670;SDS011;63196;39.564;2.628;2023-05-10T11:40:14;4.60;;;0.90;;
74670;SDS011;63196;39.564;2.628;2023-05-10T11:42:40;4.30;;;1.00;;
74670;SDS011;63196;39.564;2.628;2023-05-10T11:45:05;3.30;;;0.50;;
74670;SDS011;63196;39.564;2.628;2023-05-10T11:47:31;4.60;;;0.90;;
74670;SDS011;63196;39.564;2.628;2023-05-10T11:49:56;6.50;;;1.40;;
74670;SDS011;63196;39.564;2.628;2023-05-10T11:52:23;4.20;;;0.70;;
74670;SDS011;63196;39.564;2.628;2023-05-10T11:54:52;3.90;;;0.70;;
74670;SDS011;63196;39.564;2.628;2023-05-10T11:57:18;6.70;;;1.20;;
74670;SDS011;63196;39.564;2.628;2023-05-10T11:59:45;2.70;;;0.90;;
74670;SDS011;63196;39.564;2.628;2023-05-10T12:02:11;4.50;;;0.80;;
74670;SDS011;63196;39.564;2.628;2023-05-10T12:04:37;5.40;;;1.00;;
74670;SDS011;63196;39.564;2.628;2023-05-10T12:07:03;3.80;;;1.10;;
74670;SDS011;63196;39.564;2.628;2023-05-10T12:09:28;3.30;;;0.90;;
74670;SDS011;63196;39.564;2.628;2023-05-10T12:11:55;7.00;;;1.30;;
74670;SDS011;63196;39.564;2.628;2023-05-10T12:14:21;6.30;;;1.10;;
74670;SDS011;63196;39.564;2.628;2023-05-10T12:16:47;4.10;;;0.70;;
74670;SDS011;63196;39.564;2.628;2023-05-10T12:19:12;5.30;;;0.90;;
74670;SDS011;63196;39.564;2.628;2023-05-10T12:21:43;3.60;;;0.70;;
74670;SDS011;63196;39.564;2.628;2023-05-10T12:24:09;5.30;;;0.80;;
74670;SDS011;63196;39.564;2.628;2023-05-10T12:26:35;6.40;;;0.60;;
74670;SDS011;63196;39.564;2.628;2023-05-10T12:29:17;5.00;;;0.80;;
74670;SDS011;63196;39.564;2.628;2023-05-10T12:31:54;3.10;;;1.00;;
74670;SDS011;63196;39.564;2.628;2023-05-10T12:34:27;6.80;;;1.30;;
74670;SDS011;63196;39.564;2.628;2023-05-10T12:36:54;6.20;;;0.90;;
74670;SDS011;63196;39.564;2.628;2023-05-10T12:39:20;5.00;;;1.10;;
74670;SDS011;63196;39.564;2.628;2023-05-10T12:41:45;4.90;;;1.20;;
74670;SDS011;63196;39.564;2.628;2023-05-10T12:44:11;5.20;;;1.10;;
74670;SDS011;63196;39.564;2.628;2023-05-10T12:46:36;5.60;;;0.70;;
74670;SDS011;63196;39.564;2.628;2023-05-10T12:49:02;4.40;;;0.90;;
74670;SDS011;63196;39.564;2.628;2023-05-10T12:51:27;5.70;;;1.10;;
74670;SDS011;63196;39.564;2.628;2023-05-10T12:53:52;3.30;;;0.80;;
74670;SDS011;63196;39.564;2.628;2023-05-10T12:56:19;5.00;;;1.20;;
74670;SDS011;63196;39.564;2.628;2023-05-10T12:58:45;6.70;;;1.60;;
74670;SDS011;63196;39.564;2.628;2023-05-10T13:01:14;4.60;;;1.20;;
74670;SDS011;63196;39.564;2.628;2023-05-10T13:03:39;4.90;;;0.90;;
74670;SDS011;63196;39.564;2.628;2023-05-10T13:06:05;4.60;;;1.20;;
74670;SDS011;63196;39.564;2.628;2023-05-10T13:08:31;5.60;;;1.10;;
74670;SDS011;63196;39.564;2.628;2023-05-10T13:13:23;4.20;;;1.20;;
74670;SDS011;63196;39.564;2.628;2023-05-10T13:15:48;3.70;;;0.70;;
74670;SDS011;63196;39.564;2.628;2023-05-10T13:18:14;6.80;;;1.10;;
74670;SDS011;63196;39.564;2.628;2023-05-10T13:20:39;4.70;;;1.00;;
74670;SDS011;63196;39.564;2.628;2023-05-10T13:23:05;5.40;;;1.00;;
74670;SDS011;63196;39.564;2.628;2023-05-10T13:25:30;6.00;;;1.10;;
74670;SDS011;63196;39.564;2.628;2023-05-10T13:27:55;6.30;;;1.00;;
74670;SDS011;63196;39.564;2.628;2023-05-10T13:30:21;5.80;;;1.20;;
74670;SDS011;63196;39.564;2.628;2023-05-10T13:32:46;5.50;;;1.00;;
74670;SDS011;63196;39.564;2.628;2023-05-10T13:35:12;4.10;;;0.80;;
74670;SDS011;63196;39.564;2.628;2023-05-10T13:37:37;5.90;;;1.10;;
74670;SDS011;63196;39.564;2.628;2023-05-10T13:40:03;4.90;;;1.00;;
74670;SDS011;63196;39.564;2.628;2023-05-10T13:42:29;4.90;;;0.90;;
74670;SDS011;63196;39.564;2.628;2023-05-10T13:44:54;6.10;;;1.10;;
74670;SDS011;63196;39.564;2.628;2023-05-10T13:47:20;3.70;;;1.00;;
74670;SDS011;63196;39.564;2.628;2023-05-10T13:49:46;3.80;;;0.60;;
74670;SDS011;63196;39.564;2.628;2023-05-10T13:52:12;3.00;;;0.80;;
74670;SDS011;63196;39.564;2.628;2023-05-10T13:54:38;3.60;;;0.90;;
74670;SDS011;63196;39.564;2.628;2023-05-10T13:57:04;3.90;;;1.10;;
74670;SDS011;63196;39.564;2.628;2023-05-10T13:59:29;4.30;;;1.20;;
74670;SDS011;63196;39.564;2.628;2023-05-10T14:01:57;6.50;;;1.10;;
74670;SDS011;63196;39.564;2.628;2023-05-10T14:04:22;6.00;;;1.20;;
74670;SDS011;63196;39.564;2.628;2023-05-10T14:06:47;5.10;;;1.00;;
74670;SDS011;63196;39.564;2.628;2023-05-10T14:09:13;4.80;;;1.00;;
74670;SDS011;63196;39.564;2.628;2023-05-10T14:11:39;4.70;;;1.00;;
74670;SDS011;63196;39.564;2.628;2023-05-10T14:14:08;4.60;;;1.00;;
74670;SDS011;63196;39.564;2.628;2023-05-10T14:16:34;3.80;;;0.80;;
74670;SDS011;63196;39.564;2.628;2023-05-10T14:18:59;5.50;;;1.10;;
74670;SDS011;63196;39.564;2.628;2023-05-10T14:21:24;4.80;;;1.30;;
74670;SDS011;63196;39.564;2.628;2023-05-10T14:23:50;4.70;;;1.10;;
74670;SDS011;63196;39.564;2.628;2023-05-10T14:26:15;5.20;;;1.00;;
74670;SDS011;63196;39.564;2.628;2023-05-10T14:28:41;5.30;;;1.10;;
74670;SDS011;63196;39.564;2.628;2023-05-10T14:31:06;7.70;;;1.20;;
74670;SDS011;63196;39.564;2.628;2023-05-10T14:33:31;5.50;;;0.90;;
74670;SDS011;63196;39.564;2.628;2023-05-10T14:35:57;3.80;;;0.80;;
74670;SDS011;63196;39.564;2.628;2023-05-10T14:38:22;3.80;;;0.70;;
74670;SDS011;63196;39.564;2.628;2023-05-10T14:40:48;3.90;;;0.90;;
74670;SDS011;63196;39.564;2.628;2023-05-10T14:43:14;6.60;;;1.00;;
74670;SDS011;63196;39.564;2.628;2023-05-10T14:45:39;5.80;;;1.00;;
74670;SDS011;63196;39.564;2.628;2023-05-10T14:48:05;4.50;;;1.00;;
74670;SDS011;63196;39.564;2.628;2023-05-10T14:50:31;3.70;;;1.00;;
74670;SDS011;63196;39.564;2.628;2023-05-10T14:52:57;9.50;;;1.40;;
74670;SDS011;63196;39.564;2.628;2023-05-10T14:55:23;6.10;;;1.10;;
74670;SDS011;63196;39.564;2.628;2023-05-10T14:57:48;7.90;;;1.30;;
74670;SDS011;63196;39.564;2.628;2023-05-10T15:02:41;6.40;;;0.90;;
74670;SDS011;63196;39.564;2.628;2023-05-10T15:05:06;6.80;;;1.30;;
74670;SDS011;63196;39.564;2.628;2023-05-10T15:07:32;4.40;;;1.10;;
74670;SDS011;63196;39.564;2.628;2023-05-10T15:09:57;7.10;;;1.30;;
74670;SDS011;63196;39.564;2.628;2023-05-10T15:12:22;5.30;;;0.90;;
74670;SDS011;63196;39.564;2.628;2023-05-10T15:14:48;6.90;;;1.20;;
74670;SDS011;63196;39.564;2.628;2023-05-10T15:17:13;7.20;;;1.70;;
74670;SDS011;63196;39.564;2.628;2023-05-10T15:19:39;6.00;;;1.30;;
74670;SDS011;63196;39.564;2.628;2023-05-10T15:22:04;4.30;;;1.20;;
74670;SDS011;63196;39.564;2.628;2023-05-10T15:24:30;8.00;;;1.10;;
74670;SDS011;63196;39.564;2.628;2023-05-10T15:26:56;7.00;;;1.10;;
74670;SDS011;63196;39.564;2.628;2023-05-10T15:29:22;4.20;;;1.00;;
74670;SDS011;63196;39.564;2.628;2023-05-10T15:31:47;5.50;;;1.00;;
74670;SDS011;63196;39.564;2.628;2023-05-10T15:34:14;2.60;;;0.70;;
74670;SDS011;63196;39.564;2.628;2023-05-10T15:36:39;4.70;;;1.20;;